createdAt,value
2019-05-18T00:00:10.908Z,32.88
2019-05-18T00:02:39.575Z,33.35
2019-05-18T00:05:08.772Z,34.27
2019-05-18T00:07:37.430Z,31.60
2019-05-18T00:10:06.880Z,30.48
2019-05-18T00:12:35.553Z,32.75
2019-05-18T00:15:05.879Z,31.40
2019-05-18T00:17:34.587Z,31.97
2019-05-18T00:20:08.889Z,30.62
2019-05-18T00:22:37.589Z,31.30
2019-05-18T00:25:07.910Z,28.83
2019-05-18T00:27:36.641Z,30.95
2019-05-18T00:30:09.188Z,32.30
2019-05-18T00:32:37.982Z,30.82
2019-05-18T00:35:08.395Z,33.28
2019-05-18T00:37:37.114Z,31.73
2019-05-18T00:40:08.835Z,34.85
2019-05-18T00:42:37.496Z,31.90
2019-05-18T00:45:09.406Z,33.48
2019-05-18T00:47:41.974Z,31.12
2019-05-18T00:50:08.920Z,32.28
2019-05-18T00:52:37.772Z,32.90
2019-05-18T00:55:08.307Z,30.45
2019-05-18T00:57:36.977Z,31.10
2019-05-18T01:00:10.060Z,32.45
2019-05-18T01:02:38.812Z,33.18
2019-05-18T01:05:08.131Z,32.55
2019-05-18T01:07:37.001Z,31.97
2019-05-18T01:10:07.794Z,31.40
2019-05-18T01:12:36.487Z,33.55
2019-05-18T01:15:07.218Z,28.70
2019-05-18T01:17:35.902Z,31.87
2019-05-18T01:20:08.341Z,32.75
2019-05-18T01:22:37.009Z,31.35
2019-05-18T01:25:06.247Z,33.85
2019-05-18T01:27:34.991Z,31.97
2019-05-18T01:30:05.527Z,31.02
2019-05-18T01:32:34.270Z,30.17
2019-05-18T01:35:03.124Z,30.82
2019-05-18T01:37:31.847Z,30.45
2019-05-18T01:40:00.599Z,31.62
2019-05-18T01:42:29.364Z,31.23
2019-05-18T01:44:58.108Z,31.30
2019-05-18T01:47:26.817Z,30.85
2019-05-18T01:49:55.684Z,30.57
2019-05-18T01:52:24.345Z,31.05
2019-05-18T01:54:53.045Z,29.35
2019-05-18T01:57:21.739Z,28.87
2019-05-18T01:59:50.402Z,28.23
2019-05-18T02:02:19.182Z,29.42
2019-05-18T02:04:47.993Z,30.32
2019-05-18T02:07:16.649Z,30.05
2019-05-18T02:09:45.306Z,29.23
2019-05-18T02:12:14.095Z,28.67
2019-05-18T02:14:42.814Z,27.75
2019-05-18T02:17:11.553Z,30.32
2019-05-18T02:19:40.276Z,28.98
2019-05-18T02:22:08.961Z,31.15
2019-05-18T02:24:37.648Z,29.60
2019-05-18T02:27:06.369Z,31.10
2019-05-18T02:29:35.050Z,30.00
2019-05-18T02:32:03.801Z,30.45
2019-05-18T02:34:32.595Z,30.17
2019-05-18T02:37:01.345Z,29.92
2019-05-18T02:39:30.418Z,30.97
2019-05-18T02:41:59.267Z,30.12
2019-05-18T02:44:27.973Z,29.65
2019-05-18T02:46:56.643Z,28.55
2019-05-18T02:49:25.344Z,31.33
2019-05-18T02:51:54.056Z,30.60
2019-05-18T02:54:22.738Z,31.37
2019-05-18T02:56:51.455Z,32.45
2019-05-18T02:59:20.141Z,32.38
2019-05-18T03:01:48.813Z,32.73
2019-05-18T03:04:17.525Z,31.77
2019-05-18T03:06:46.686Z,32.65
2019-05-18T03:09:15.382Z,34.50
2019-05-18T03:11:44.121Z,34.90
2019-05-18T03:14:12.843Z,36.05
2019-05-18T03:16:41.575Z,35.43
2019-05-18T03:19:10.303Z,34.45
2019-05-18T03:21:39.057Z,34.85
2019-05-18T03:24:07.795Z,29.92
2019-05-18T03:26:37.907Z,32.90
2019-05-18T03:29:06.560Z,34.40
2019-05-18T03:31:35.229Z,34.13
2019-05-18T03:34:04.003Z,36.50
2019-05-18T03:36:32.665Z,34.65
2019-05-18T03:39:01.352Z,33.33
2019-05-18T03:41:30.089Z,35.10
2019-05-18T03:43:58.750Z,34.65
2019-05-18T03:46:27.417Z,33.20
2019-05-18T03:48:56.137Z,33.73
2019-05-18T03:51:24.809Z,36.98
2019-05-18T03:53:53.572Z,33.33
2019-05-18T03:56:22.236Z,34.58
2019-05-18T03:58:51.020Z,35.63
2019-05-18T04:01:19.705Z,34.45
2019-05-18T04:03:48.386Z,33.45
2019-05-18T04:06:17.175Z,32.88
2019-05-18T04:08:45.904Z,35.78
2019-05-18T04:11:14.681Z,32.98
2019-05-18T04:13:43.366Z,36.55
2019-05-18T04:16:12.069Z,33.45
2019-05-18T04:18:40.845Z,32.48
2019-05-18T04:21:10.702Z,33.95
2019-05-18T04:23:39.377Z,34.50
2019-05-18T04:26:08.139Z,34.60
2019-05-18T04:28:36.883Z,36.30
2019-05-18T04:31:05.683Z,35.50
2019-05-18T04:33:34.492Z,36.48
2019-05-18T04:36:03.163Z,34.43
2019-05-18T04:38:31.889Z,34.13
2019-05-18T04:41:00.565Z,33.85
2019-05-18T04:43:29.349Z,35.13
2019-05-18T04:45:58.040Z,32.95
2019-05-18T04:48:26.740Z,33.35
2019-05-18T04:50:56.906Z,32.13
2019-05-18T04:53:25.634Z,33.05
2019-05-18T04:55:54.369Z,30.97
2019-05-18T04:58:23.054Z,32.60
2019-05-18T05:00:51.776Z,31.00
2019-05-18T05:03:20.466Z,30.10
2019-05-18T05:05:49.160Z,32.05
2019-05-18T05:08:17.856Z,29.15
2019-05-18T05:10:52.467Z,30.15
2019-05-18T05:13:21.137Z,30.92
2019-05-18T05:15:49.830Z,29.32
2019-05-18T05:18:18.510Z,29.23
2019-05-18T05:20:47.228Z,31.00
2019-05-18T05:23:15.974Z,30.50
2019-05-18T05:25:44.680Z,29.48
2019-05-18T05:28:13.346Z,29.80
2019-05-18T05:30:42.265Z,29.48
2019-05-18T05:33:10.942Z,31.15
2019-05-18T05:35:39.646Z,28.95
2019-05-18T05:38:08.320Z,27.98
2019-05-18T05:40:53.527Z,28.80
2019-05-18T05:45:50.136Z,29.87
2019-05-18T05:48:18.827Z,29.20
2019-05-18T05:50:47.501Z,29.18
2019-05-18T05:53:16.462Z,29.15
2019-05-18T05:55:45.193Z,29.32
2019-05-18T05:58:13.930Z,28.73
2019-05-18T06:00:42.645Z,28.12
2019-05-18T06:03:11.406Z,29.02
2019-05-18T06:05:40.107Z,27.70
2019-05-18T06:08:08.891Z,28.92
2019-05-18T06:10:37.566Z,26.87
2019-05-18T06:13:06.318Z,27.67
2019-05-18T06:15:37.770Z,27.35
2019-05-18T06:18:06.466Z,28.00
2019-05-18T06:20:49.016Z,27.35
2019-05-18T06:23:05.794Z,27.87
2019-05-18T06:25:34.674Z,27.58
2019-05-18T06:28:03.448Z,27.00
2019-05-18T06:30:32.143Z,25.92
2019-05-18T06:33:00.825Z,26.05
2019-05-18T06:35:29.543Z,24.90
2019-05-18T06:37:58.226Z,26.65
2019-05-18T06:40:26.927Z,25.12
2019-05-18T06:42:55.603Z,25.05
2019-05-18T06:45:24.366Z,24.07
2019-05-18T06:47:53.044Z,23.83
2019-05-18T06:50:27.301Z,24.18
2019-05-18T06:52:56.174Z,24.43
2019-05-18T06:55:26.729Z,24.50
2019-05-18T06:57:57.665Z,25.32
2019-05-18T07:00:26.416Z,23.45
2019-05-18T07:02:55.465Z,23.70
2019-05-18T07:05:24.243Z,22.87
2019-05-18T07:07:52.932Z,22.02
2019-05-18T07:10:21.755Z,22.22
2019-05-18T07:12:50.499Z,22.87
2019-05-18T07:15:19.571Z,21.50
2019-05-18T07:17:48.387Z,21.15
2019-05-18T07:20:18.556Z,19.77
2019-05-18T07:22:47.271Z,20.95
2019-05-18T07:25:16.545Z,20.12
2019-05-18T07:27:45.213Z,18.15
2019-05-18T07:30:14.594Z,17.70
2019-05-18T07:32:43.751Z,16.95
2019-05-18T07:35:12.994Z,17.85
2019-05-18T07:37:41.675Z,18.07
2019-05-18T07:40:11.609Z,16.35
2019-05-18T07:42:40.367Z,16.75
2019-05-18T07:45:09.537Z,15.28
2019-05-18T07:47:38.209Z,14.73
2019-05-18T07:50:07.451Z,16.32
2019-05-18T07:52:36.122Z,15.40
2019-05-18T07:55:06.256Z,16.50
2019-05-18T07:57:34.938Z,16.42
2019-05-18T08:00:04.248Z,15.98
2019-05-18T08:02:33.007Z,16.55
2019-05-18T08:05:01.823Z,16.55
2019-05-18T08:07:30.592Z,14.38
2019-05-18T08:09:59.401Z,14.50
2019-05-18T08:12:28.072Z,14.95
2019-05-18T08:14:56.778Z,14.60
2019-05-18T08:17:25.540Z,14.70
2019-05-18T08:19:54.311Z,13.88
2019-05-18T08:22:22.986Z,14.45
2019-05-18T08:24:51.762Z,15.03
2019-05-18T08:27:20.490Z,14.33
2019-05-18T08:29:49.552Z,15.30
2019-05-18T08:32:18.237Z,15.15
2019-05-18T08:34:47.061Z,12.88
2019-05-18T08:37:15.741Z,13.83
2019-05-18T08:39:44.443Z,13.98
2019-05-18T08:42:13.205Z,11.12
2019-05-18T08:44:42.042Z,11.73
2019-05-18T08:47:10.724Z,10.32
2019-05-18T08:49:39.519Z,10.55
2019-05-18T08:52:08.891Z,11.60
2019-05-18T08:54:37.630Z,11.35
2019-05-18T08:57:06.385Z,12.80
2019-05-18T08:59:35.083Z,12.33
2019-05-18T09:02:03.756Z,12.33
2019-05-18T09:04:33.390Z,12.78
2019-05-18T09:07:02.101Z,13.35
2019-05-18T09:09:30.843Z,12.00
2019-05-18T09:11:59.595Z,12.13
2019-05-18T09:14:28.323Z,11.55
2019-05-18T09:16:57.010Z,12.53
2019-05-18T09:19:25.792Z,12.75
2019-05-18T09:21:54.538Z,13.48
2019-05-18T09:24:23.218Z,12.68
2019-05-18T09:26:52.009Z,11.80
2019-05-18T09:29:20.795Z,10.65
2019-05-18T09:31:49.548Z,10.05
2019-05-18T09:34:18.280Z,10.78
2019-05-18T09:36:46.987Z,10.93
2019-05-18T09:39:15.748Z,11.03
2019-05-18T09:41:44.532Z,10.50
2019-05-18T09:44:13.226Z,11.22
2019-05-18T09:46:41.906Z,11.65
2019-05-18T09:49:11.275Z,12.23
2019-05-18T09:51:40.042Z,11.78
2019-05-18T09:54:08.790Z,13.22
2019-05-18T09:56:37.509Z,10.82
2019-05-18T09:59:06.195Z,11.63
2019-05-18T10:01:35.417Z,11.30
2019-05-18T10:04:04.377Z,10.95
2019-05-18T10:06:33.071Z,10.95
2019-05-18T10:09:01.738Z,11.12
2019-05-18T10:11:37.942Z,10.30
2019-05-18T10:14:01.031Z,11.50
2019-05-18T10:16:29.740Z,12.20
2019-05-18T10:18:58.487Z,11.10
2019-05-18T10:21:27.267Z,10.53
2019-05-18T10:23:56.037Z,11.40
2019-05-18T10:26:26.663Z,10.88
2019-05-18T10:28:55.418Z,11.38
2019-05-18T10:31:24.320Z,11.22
2019-05-18T10:33:53.057Z,10.08
2019-05-18T10:36:21.777Z,10.80
2019-05-18T10:38:50.450Z,10.23
2019-05-18T10:41:19.245Z,10.72
2019-05-18T10:43:47.924Z,10.05
2019-05-18T10:46:16.637Z,10.95
2019-05-18T10:48:45.386Z,10.72
2019-05-18T10:51:14.085Z,10.03
2019-05-18T10:53:42.781Z,10.05
2019-05-18T10:56:11.481Z,10.32
2019-05-18T10:58:40.239Z,10.98
2019-05-18T11:01:09.012Z,10.48
2019-05-18T11:03:37.757Z,10.58
2019-05-18T11:06:06.531Z,10.80
2019-05-18T11:08:38.280Z,10.20
2019-05-18T11:11:05.917Z,10.60
2019-05-18T11:13:34.676Z,11.30
2019-05-18T11:16:03.466Z,11.43
2019-05-18T11:18:32.134Z,10.10
2019-05-18T11:21:00.907Z,10.20
2019-05-18T11:23:42.847Z,10.55
2019-05-18T11:26:00.096Z,10.05
2019-05-18T11:28:28.752Z,10.55
2019-05-18T11:30:58.816Z,9.55
2019-05-18T11:33:27.573Z,9.38
2019-05-18T11:35:56.259Z,9.33
2019-05-18T11:38:24.969Z,9.80
2019-05-18T11:40:53.703Z,9.53
2019-05-18T11:43:22.414Z,10.08
2019-05-18T11:45:51.112Z,10.75
2019-05-18T11:48:19.827Z,10.45
2019-05-18T11:50:48.626Z,9.68
2019-05-18T11:53:17.391Z,9.65
2019-05-18T11:55:47.689Z,10.25
2019-05-18T11:58:16.465Z,9.98
2019-05-18T12:00:45.215Z,9.23
2019-05-18T12:03:14.008Z,9.98
2019-05-18T12:05:42.755Z,10.48
2019-05-18T12:08:11.468Z,10.10
2019-05-18T12:10:40.154Z,9.70
2019-05-18T12:13:10.664Z,9.93
2019-05-18T12:15:39.341Z,8.58
2019-05-18T12:18:08.047Z,9.00
2019-05-18T12:20:36.710Z,8.58
2019-05-18T12:23:08.238Z,8.78
2019-05-18T12:25:36.070Z,7.97
2019-05-18T12:28:04.809Z,7.87
2019-05-18T12:30:33.647Z,8.15
2019-05-18T12:33:02.345Z,7.80
2019-05-18T12:35:31.111Z,9.20
2019-05-18T12:37:59.906Z,7.28
2019-05-18T12:40:28.579Z,8.58
2019-05-18T12:42:57.311Z,8.48
2019-05-18T12:45:26.035Z,8.08
2019-05-18T12:47:54.846Z,7.92
2019-05-18T12:50:24.214Z,7.55
2019-05-18T12:52:54.894Z,8.13
2019-05-18T12:55:23.784Z,7.22
2019-05-18T12:57:53.983Z,8.23
2019-05-18T13:00:23.358Z,7.70
2019-05-18T13:02:52.139Z,7.28
2019-05-18T13:05:21.054Z,8.00
2019-05-18T13:07:49.758Z,7.72
2019-05-18T13:10:19.538Z,7.83
2019-05-18T13:12:48.314Z,8.13
2019-05-18T13:15:17.291Z,7.47
2019-05-18T13:17:45.998Z,7.08
2019-05-18T13:20:15.410Z,6.80
2019-05-18T13:22:44.171Z,6.90
2019-05-18T13:25:13.441Z,6.83
2019-05-18T13:27:42.218Z,7.45
2019-05-18T13:30:13.297Z,6.55
2019-05-18T13:32:42.019Z,5.90
2019-05-18T13:35:12.907Z,5.87
2019-05-18T13:37:41.624Z,5.83
2019-05-18T13:40:11.133Z,6.55
2019-05-18T13:42:39.837Z,6.40
2019-05-18T13:45:10.435Z,6.47
2019-05-18T13:47:41.155Z,6.62
2019-05-18T13:50:10.057Z,5.92
2019-05-18T13:52:38.818Z,6.40
2019-05-18T13:55:08.012Z,5.28
2019-05-18T13:57:36.722Z,5.20
2019-05-18T14:00:07.529Z,5.17
2019-05-18T14:02:36.274Z,5.65
2019-05-18T14:05:05.660Z,5.37
2019-05-18T14:07:34.490Z,5.65
2019-05-18T14:10:03.407Z,5.58
2019-05-18T14:12:32.069Z,6.17
2019-05-18T14:15:00.775Z,5.40
2019-05-18T14:17:29.455Z,5.78
2019-05-18T14:20:01.208Z,5.45
2019-05-18T14:22:29.973Z,5.60
2019-05-18T14:24:58.711Z,5.47
2019-05-18T14:27:27.473Z,5.35
2019-05-18T14:29:56.241Z,6.20
2019-05-18T14:32:24.919Z,6.40
2019-05-18T14:35:01.763Z,6.00
2019-05-18T14:37:33.810Z,5.40
2019-05-18T14:40:02.662Z,5.83
2019-05-18T14:42:31.403Z,5.45
2019-05-18T14:45:01.887Z,5.50
2019-05-18T14:47:30.668Z,5.28
2019-05-18T14:49:59.375Z,5.30
2019-05-18T14:52:28.055Z,5.60
2019-05-18T14:54:57.537Z,5.92
2019-05-18T14:57:26.209Z,5.70
2019-05-18T14:59:55.158Z,5.60
2019-05-18T15:02:25.478Z,5.58
2019-05-18T15:04:57.652Z,6.00
2019-05-18T15:07:26.307Z,5.40
2019-05-18T15:09:55.009Z,5.12
2019-05-18T15:12:23.675Z,5.60
2019-05-18T15:14:52.460Z,5.20
2019-05-18T15:17:21.197Z,5.22
2019-05-18T15:19:50.025Z,5.20
2019-05-18T15:22:18.791Z,5.85
2019-05-18T15:24:47.587Z,5.40
2019-05-18T15:27:16.257Z,5.50
2019-05-18T15:29:44.947Z,5.25
2019-05-18T15:32:13.608Z,5.72
2019-05-18T15:34:42.387Z,5.50
2019-05-18T15:37:11.065Z,6.08
2019-05-18T15:39:39.783Z,5.10
2019-05-18T15:42:08.479Z,5.37
2019-05-18T15:44:37.188Z,5.33
2019-05-18T15:47:05.854Z,5.92
2019-05-18T15:49:34.851Z,8.38
2019-05-18T15:52:03.652Z,8.90
2019-05-18T15:54:32.451Z,8.35
2019-05-18T15:57:01.193Z,7.85
2019-05-18T15:59:29.967Z,7.95
2019-05-18T16:01:58.669Z,10.85
2019-05-18T16:04:27.441Z,10.10
2019-05-18T16:06:58.854Z,10.43
2019-05-18T16:09:29.293Z,10.72
2019-05-18T16:11:58.085Z,10.48
2019-05-18T16:14:27.092Z,11.43
2019-05-18T16:16:55.794Z,11.45
2019-05-18T16:19:24.706Z,11.57
2019-05-18T16:21:53.704Z,11.48
2019-05-18T16:24:22.426Z,10.48
2019-05-18T16:26:51.177Z,10.80
2019-05-18T16:29:19.916Z,10.00
2019-05-18T16:31:48.851Z,10.53
2019-05-18T16:34:17.541Z,10.72
2019-05-18T16:36:46.229Z,10.90
2019-05-18T16:39:14.924Z,11.18
2019-05-18T16:41:43.704Z,11.88
2019-05-18T16:44:12.377Z,10.85
2019-05-18T16:46:41.180Z,11.85
2019-05-18T16:49:09.931Z,12.10
2019-05-18T16:51:38.630Z,11.95
2019-05-18T16:54:07.453Z,9.78
2019-05-18T16:56:36.850Z,10.95
2019-05-18T16:59:05.571Z,10.53
2019-05-18T17:01:34.388Z,9.00
2019-05-18T17:04:03.110Z,7.80
2019-05-18T17:06:31.934Z,6.97
2019-05-18T17:09:00.682Z,6.70
2019-05-18T17:11:34.401Z,6.87
2019-05-18T17:14:03.352Z,6.90
2019-05-18T17:16:32.039Z,7.00
2019-05-18T17:19:00.715Z,7.12
2019-05-18T17:21:29.439Z,11.50
2019-05-18T17:23:58.146Z,13.00
2019-05-18T17:26:28.305Z,12.70
2019-05-18T17:28:57.004Z,12.85
2019-05-18T17:31:25.807Z,12.55
2019-05-18T17:33:54.535Z,14.38
2019-05-18T17:36:24.280Z,15.90
2019-05-18T17:39:04.445Z,15.32
2019-05-18T17:41:33.346Z,14.80
2019-05-18T17:44:02.114Z,13.88
2019-05-18T17:46:30.819Z,14.38
2019-05-18T17:48:59.518Z,14.10
2019-05-18T17:51:28.284Z,14.05
2019-05-18T17:53:57.048Z,13.72
2019-05-18T17:56:25.778Z,15.20
2019-05-18T17:58:54.562Z,15.40
2019-05-18T18:01:23.433Z,17.05
2019-05-18T18:03:52.125Z,17.23
2019-05-18T18:06:20.947Z,18.23
2019-05-18T18:08:49.748Z,17.45
2019-05-18T18:11:18.571Z,18.65
2019-05-18T18:13:47.242Z,17.90
2019-05-18T18:16:15.948Z,18.57
2019-05-18T18:18:44.708Z,18.55
2019-05-18T18:21:13.483Z,19.35
2019-05-18T18:23:42.239Z,20.20
2019-05-18T18:26:11.024Z,20.45
2019-05-18T18:28:39.683Z,20.55
2019-05-18T18:31:08.463Z,20.17
2019-05-18T18:33:37.136Z,21.42
2019-05-18T18:36:05.907Z,21.17
2019-05-18T18:38:34.619Z,22.25
2019-05-18T18:41:03.444Z,22.02
2019-05-18T18:43:32.357Z,21.93
2019-05-18T18:46:01.044Z,24.63
2019-05-18T18:48:29.797Z,22.27
2019-05-18T18:51:01.175Z,25.37
2019-05-18T18:53:29.934Z,23.45
2019-05-18T18:55:58.734Z,24.30
2019-05-18T18:58:27.505Z,24.15
2019-05-18T19:00:56.172Z,25.60
2019-05-18T19:03:24.944Z,24.05
2019-05-18T19:05:53.640Z,23.15
2019-05-18T19:08:22.426Z,25.60
2019-05-18T19:10:51.169Z,25.23
2019-05-18T19:13:22.903Z,23.22
2019-05-18T19:15:51.677Z,24.92
2019-05-18T19:18:20.459Z,23.87
2019-05-18T19:20:49.223Z,24.72
2019-05-18T19:23:17.944Z,23.32
2019-05-18T19:25:46.697Z,25.23
2019-05-18T19:28:15.588Z,23.18
2019-05-18T19:30:44.364Z,24.05
2019-05-18T19:33:13.189Z,25.20
2019-05-18T19:35:41.836Z,24.75
2019-05-18T19:38:10.790Z,24.57
2019-05-18T19:40:39.468Z,24.90
2019-05-18T19:43:08.323Z,26.35
2019-05-18T19:45:37.078Z,25.00
2019-05-18T19:48:07.596Z,27.35
2019-05-18T19:50:36.394Z,25.15
2019-05-18T19:53:07.165Z,24.95
2019-05-18T19:55:35.927Z,26.00
2019-05-18T19:58:08.960Z,25.00
2019-05-18T20:00:35.102Z,25.15
2019-05-18T20:03:03.875Z,27.48
2019-05-18T20:05:32.591Z,27.73
2019-05-18T20:08:04.153Z,26.70
2019-05-18T20:10:32.967Z,26.07
2019-05-18T20:13:01.681Z,28.42
2019-05-18T20:15:30.348Z,27.60
2019-05-18T20:17:59.081Z,27.07
2019-05-18T20:20:30.618Z,26.95
2019-05-18T20:22:59.411Z,26.80
2019-05-18T20:25:28.078Z,26.90
2019-05-18T20:27:56.870Z,27.95
2019-05-18T20:30:25.671Z,28.70
2019-05-18T20:32:54.428Z,28.98
2019-05-18T20:35:26.150Z,29.18
2019-05-18T20:37:54.963Z,28.32
2019-05-18T20:40:23.649Z,28.45
2019-05-18T20:42:52.462Z,30.02
2019-05-18T20:45:21.532Z,28.57
2019-05-18T20:47:50.449Z,27.85
2019-05-18T20:50:19.290Z,29.48
2019-05-18T20:52:48.022Z,27.73
2019-05-18T20:55:16.914Z,27.02
2019-05-18T20:57:45.631Z,27.98
2019-05-18T21:00:15.780Z,28.83
2019-05-18T21:02:44.519Z,28.85
2019-05-18T21:05:13.435Z,27.62
2019-05-18T21:07:42.225Z,28.85
2019-05-18T21:10:11.395Z,29.37
2019-05-18T21:12:40.150Z,27.48
2019-05-18T21:15:11.127Z,29.60
2019-05-18T21:17:39.793Z,29.42
2019-05-18T21:20:09.118Z,30.68
2019-05-18T21:22:37.988Z,29.45
2019-05-18T21:25:07.379Z,28.10
2019-05-18T21:27:36.220Z,30.27
2019-05-18T21:30:05.985Z,29.72
2019-05-18T21:32:34.753Z,30.35
2019-05-18T21:35:04.122Z,29.52
2019-05-18T21:37:34.547Z,30.08
2019-05-18T21:40:03.370Z,30.27
2019-05-18T21:42:33.813Z,31.62
2019-05-18T21:45:02.693Z,31.45
2019-05-18T21:47:31.663Z,31.70
2019-05-18T21:50:00.415Z,31.40
2019-05-18T21:52:29.183Z,30.60
2019-05-18T21:54:57.905Z,31.15
2019-05-18T21:57:26.598Z,31.35
2019-05-18T21:59:55.780Z,31.87
2019-05-18T22:02:25.927Z,30.08
2019-05-18T22:04:54.727Z,33.13
2019-05-18T22:07:23.489Z,29.57
2019-05-18T22:09:53.770Z,32.33
2019-05-18T22:12:22.755Z,31.97
2019-05-18T22:14:51.435Z,30.37
2019-05-18T22:17:20.295Z,32.17
2019-05-18T22:19:49.020Z,32.83
2019-05-18T22:22:17.822Z,34.45
2019-05-18T22:24:46.549Z,32.25
2019-05-18T22:27:15.301Z,31.35
2019-05-18T22:29:44.165Z,30.95
2019-05-18T22:32:12.911Z,36.55
2019-05-18T22:34:41.623Z,32.60
2019-05-18T22:37:10.374Z,33.83
2019-05-18T22:39:39.093Z,32.30
2019-05-18T22:42:08.887Z,33.63
2019-05-18T22:44:37.598Z,33.20
2019-05-18T22:47:06.290Z,35.38
2019-05-18T22:49:35.071Z,34.38
2019-05-18T22:52:03.762Z,34.48
2019-05-18T22:54:32.542Z,35.40
2019-05-18T22:57:01.305Z,36.03
2019-05-18T22:59:30.025Z,36.13
2019-05-18T23:02:00.153Z,35.17
2019-05-18T23:04:28.854Z,37.70
2019-05-18T23:06:57.595Z,33.55
2019-05-18T23:09:26.325Z,37.73
2019-05-18T23:11:55.075Z,37.10
2019-05-18T23:14:23.813Z,38.73
2019-05-18T23:16:52.545Z,39.70
2019-05-18T23:19:21.280Z,36.68
2019-05-18T23:21:50.030Z,38.60
2019-05-18T23:24:18.742Z,43.40
2019-05-18T23:26:47.439Z,38.55
2019-05-18T23:29:16.147Z,40.70
2019-05-18T23:31:44.839Z,39.40
2019-05-18T23:34:15.100Z,41.98
2019-05-18T23:36:43.798Z,38.40
2019-05-18T23:39:12.533Z,42.43
2019-05-18T23:41:41.225Z,39.85
2019-05-18T23:44:09.898Z,40.45
2019-05-18T23:46:38.594Z,40.80
2019-05-18T23:49:10.988Z,40.75
2019-05-18T23:51:38.158Z,40.08
2019-05-18T23:54:06.889Z,43.17
2019-05-18T23:56:35.666Z,41.58
2019-05-18T23:59:05.249Z,41.60
